createdAt,value
2017-03-21T00:00:10.465Z,0
2017-03-21T00:01:20.777Z,0
2017-03-21T00:02:31.396Z,0
2017-03-21T00:03:41.720Z,0
2017-03-21T00:04:51.726Z,0
2017-03-21T00:06:02.029Z,0
2017-03-21T00:07:12.042Z,0
2017-03-21T00:08:22.590Z,0
2017-03-21T00:09:32.896Z,0
2017-03-21T00:10:43.197Z,0
2017-03-21T00:11:53.508Z,0
2017-03-21T00:13:03.808Z,0
2017-03-21T00:14:14.372Z,0
2017-03-21T00:15:24.670Z,0
2017-03-21T00:16:34.973Z,0
2017-03-21T00:17:45.277Z,0
2017-03-21T00:18:55.587Z,0
2017-03-21T00:20:07.040Z,0
2017-03-21T00:21:17.345Z,0
2017-03-21T00:22:27.650Z,0
2017-03-21T00:23:37.960Z,0
2017-03-21T00:24:47.956Z,0
2017-03-21T00:25:58.503Z,0
2017-03-21T00:27:08.484Z,0
2017-03-21T00:28:18.797Z,0
2017-03-21T00:29:29.101Z,0
2017-03-21T00:30:39.090Z,0
2017-03-21T00:31:49.642Z,0
2017-03-21T00:32:59.987Z,0
2017-03-21T00:34:10.310Z,0
2017-03-21T00:35:20.324Z,0
2017-03-21T00:36:30.631Z,0
2017-03-21T00:37:41.181Z,0
2017-03-21T00:38:51.502Z,0
2017-03-21T00:40:01.805Z,0
2017-03-21T00:41:12.109Z,0
2017-03-21T00:42:22.416Z,0
2017-03-21T00:43:32.988Z,0
2017-03-21T00:44:43.296Z,0
2017-03-21T00:45:53.283Z,0
2017-03-21T00:47:03.585Z,0
2017-03-21T00:48:13.883Z,0
2017-03-21T00:49:24.442Z,0
2017-03-21T00:50:34.448Z,0
2017-03-21T00:51:44.440Z,0
2017-03-21T00:52:54.766Z,0
2017-03-21T00:54:05.075Z,0
2017-03-21T00:55:15.625Z,0
2017-03-21T00:56:25.907Z,0
2017-03-21T00:57:36.202Z,0
2017-03-21T00:58:46.193Z,0
2017-03-21T00:59:56.543Z,0
2017-03-21T01:01:07.133Z,0
2017-03-21T01:02:17.130Z,0
2017-03-21T01:03:27.434Z,0
2017-03-21T01:04:37.748Z,0
2017-03-21T01:05:47.742Z,0
2017-03-21T01:06:58.353Z,0
2017-03-21T01:08:08.666Z,0
2017-03-21T01:09:18.980Z,0
2017-03-21T01:10:28.967Z,0
2017-03-21T01:11:39.254Z,0
2017-03-21T01:12:49.505Z,0
2017-03-21T01:13:59.811Z,0
2017-03-21T01:15:10.109Z,0
2017-03-21T01:16:20.428Z,0
2017-03-21T01:17:30.717Z,0
2017-03-21T01:18:41.321Z,0
2017-03-21T01:19:51.635Z,0
2017-03-21T01:21:01.635Z,0
2017-03-21T01:22:11.939Z,0
2017-03-21T01:23:22.238Z,0
2017-03-21T01:24:32.796Z,0
2017-03-21T01:25:42.797Z,0
2017-03-21T01:26:52.787Z,0
2017-03-21T01:28:03.115Z,0
2017-03-21T01:29:13.117Z,0
2017-03-21T01:30:23.669Z,0
2017-03-21T01:31:33.651Z,0
2017-03-21T01:32:43.962Z,0
2017-03-21T01:33:54.259Z,0
2017-03-21T01:35:04.563Z,0
2017-03-21T01:36:15.113Z,0
2017-03-21T01:37:25.417Z,0
2017-03-21T01:38:35.716Z,0
2017-03-21T01:39:46.019Z,0
2017-03-21T01:40:56.321Z,0
2017-03-21T01:42:06.899Z,0
2017-03-21T01:43:16.896Z,0
2017-03-21T01:44:27.209Z,0
2017-03-21T01:45:37.424Z,0
2017-03-21T01:46:47.713Z,0
2017-03-21T01:47:58.317Z,0
2017-03-21T01:49:08.660Z,0
2017-03-21T01:50:18.974Z,0
2017-03-21T01:51:28.970Z,0
2017-03-21T01:52:39.315Z,0
2017-03-21T01:53:49.881Z,0
2017-03-21T01:55:00.187Z,0
2017-03-21T01:56:10.480Z,0
2017-03-21T01:57:21.068Z,0
2017-03-21T01:58:31.373Z,0
2017-03-21T01:59:42.036Z,0
2017-03-21T02:00:52.334Z,0
2017-03-21T02:02:02.636Z,0
2017-03-21T02:03:12.964Z,0
2017-03-21T02:04:23.274Z,0
2017-03-21T02:05:33.824Z,0
2017-03-21T02:06:43.808Z,0
2017-03-21T02:07:54.115Z,0
2017-03-21T02:09:03.806Z,0
2017-03-21T02:10:14.114Z,0
2017-03-21T02:11:24.675Z,0
2017-03-21T02:12:34.963Z,0
2017-03-21T02:13:45.287Z,0
2017-03-21T02:14:55.604Z,0
2017-03-21T02:16:05.603Z,0
2017-03-21T02:17:16.167Z,0
2017-03-21T02:18:26.472Z,0
2017-03-21T02:19:36.471Z,0
2017-03-21T02:20:46.771Z,0
2017-03-21T02:21:57.079Z,0
2017-03-21T02:23:07.642Z,0
2017-03-21T02:24:17.946Z,0
2017-03-21T02:25:28.262Z,0
2017-03-21T02:26:38.579Z,0
2017-03-21T02:27:48.914Z,0
2017-03-21T02:28:59.535Z,0
2017-03-21T02:30:09.526Z,0
2017-03-21T02:31:19.508Z,0
2017-03-21T02:32:29.197Z,0
2017-03-21T02:33:39.194Z,0
2017-03-21T02:34:49.748Z,0
2017-03-21T02:35:59.738Z,0
2017-03-21T02:37:09.725Z,0
2017-03-21T02:38:20.023Z,0
2017-03-21T02:39:30.336Z,0
2017-03-21T02:40:40.623Z,0
2017-03-21T02:41:50.618Z,0
2017-03-21T02:43:00.618Z,0
2017-03-21T02:44:11.032Z,0
2017-03-21T02:45:21.018Z,0
2017-03-21T02:46:31.311Z,0
2017-03-21T02:47:41.620Z,0
2017-03-21T02:48:51.940Z,0
2017-03-21T02:50:02.263Z,0
2017-03-21T02:51:12.564Z,0
2017-03-21T02:52:22.798Z,0
2017-03-21T02:53:33.095Z,0
2017-03-21T02:54:43.101Z,0
2017-03-21T02:55:53.332Z,0
2017-03-21T02:57:03.641Z,0
2017-03-21T02:58:14.199Z,0
2017-03-21T02:59:24.503Z,0
2017-03-21T03:00:34.816Z,0
2017-03-21T03:01:45.114Z,0
2017-03-21T03:02:55.428Z,0
2017-03-21T03:04:06.087Z,0
2017-03-21T03:05:16.384Z,0
2017-03-21T03:06:26.683Z,0
2017-03-21T03:07:36.666Z,0
2017-03-21T03:08:46.660Z,0
2017-03-21T03:09:57.217Z,0
2017-03-21T03:11:07.519Z,0
2017-03-21T03:12:17.814Z,0
2017-03-21T03:13:28.118Z,0
2017-03-21T03:14:38.415Z,0
2017-03-21T03:15:48.659Z,0
2017-03-21T03:16:58.644Z,0
2017-03-21T03:18:08.640Z,0
2017-03-21T03:19:18.958Z,0
2017-03-21T03:20:29.258Z,0
2017-03-21T03:21:39.798Z,0
2017-03-21T03:22:50.107Z,0
2017-03-21T03:24:00.464Z,0
2017-03-21T03:25:10.459Z,0
2017-03-21T03:26:20.781Z,0
2017-03-21T03:27:31.367Z,0
2017-03-21T03:28:41.677Z,0
2017-03-21T03:29:51.985Z,0
2017-03-21T03:31:01.972Z,0
2017-03-21T03:32:12.256Z,0
2017-03-21T03:33:22.809Z,0
2017-03-21T03:34:33.114Z,0
2017-03-21T03:35:43.408Z,0
2017-03-21T03:36:53.393Z,0
2017-03-21T03:38:03.695Z,0
2017-03-21T03:39:14.315Z,0
2017-03-21T03:40:24.611Z,0
2017-03-21T03:41:34.895Z,0
2017-03-21T03:42:45.214Z,0
2017-03-21T03:43:55.239Z,0
2017-03-21T03:45:05.844Z,0
2017-03-21T03:46:16.159Z,0
2017-03-21T03:47:26.164Z,0
2017-03-21T03:48:36.471Z,0
2017-03-21T03:49:46.461Z,0
2017-03-21T03:50:57.062Z,0
2017-03-21T03:52:07.044Z,0
2017-03-21T03:53:17.348Z,0
2017-03-21T03:54:27.655Z,0
2017-03-21T03:55:37.962Z,0
2017-03-21T03:56:48.506Z,0
2017-03-21T03:57:58.850Z,0
2017-03-21T03:59:08.842Z,0
2017-03-21T04:00:19.144Z,0
2017-03-21T04:01:29.127Z,0
2017-03-21T04:02:39.738Z,0
2017-03-21T04:03:50.049Z,0
2017-03-21T04:04:59.434Z,0
2017-03-21T04:06:09.425Z,0
2017-03-21T04:07:19.418Z,0
2017-03-21T04:08:30.033Z,0
2017-03-21T04:09:39.702Z,0
2017-03-21T04:10:49.997Z,0
2017-03-21T04:12:00.300Z,0
2017-03-21T04:13:10.619Z,0
2017-03-21T04:14:21.178Z,0
2017-03-21T04:15:31.178Z,0
2017-03-21T04:16:41.489Z,0
2017-03-21T04:17:51.802Z,0
2017-03-21T04:19:02.118Z,0
2017-03-21T04:20:12.398Z,0
2017-03-21T04:21:22.690Z,0
2017-03-21T04:22:33.025Z,0
2017-03-21T04:23:43.341Z,0
2017-03-21T04:24:53.332Z,0
2017-03-21T04:26:03.930Z,0
2017-03-21T04:27:14.234Z,0
2017-03-21T04:28:24.225Z,0
2017-03-21T04:29:33.908Z,0
2017-03-21T04:30:43.889Z,0
2017-03-21T04:31:54.428Z,0
2017-03-21T04:33:04.739Z,0
2017-03-21T04:34:15.069Z,0
2017-03-21T04:35:25.359Z,0
2017-03-21T04:36:35.668Z,0
2017-03-21T04:37:46.278Z,0
2017-03-21T04:38:56.592Z,0
2017-03-21T04:40:06.900Z,0
2017-03-21T04:41:17.197Z,0
2017-03-21T04:42:27.503Z,0
2017-03-21T04:43:38.118Z,0
2017-03-21T04:44:48.116Z,0
2017-03-21T04:45:58.096Z,0
2017-03-21T04:47:08.391Z,0
2017-03-21T04:48:18.690Z,0
2017-03-21T04:49:29.293Z,0
2017-03-21T04:50:39.603Z,0
2017-03-21T04:51:49.587Z,0
2017-03-21T04:52:59.578Z,0
2017-03-21T04:54:09.885Z,0
2017-03-21T04:55:20.444Z,0
2017-03-21T04:56:30.732Z,0
2017-03-21T04:57:41.041Z,4
2017-03-21T04:58:51.047Z,16
2017-03-21T05:00:01.367Z,20
2017-03-21T05:01:11.603Z,24
2017-03-21T05:02:21.895Z,28
2017-03-21T05:03:31.894Z,28
2017-03-21T05:04:42.205Z,32
2017-03-21T05:05:52.504Z,36
2017-03-21T05:07:03.096Z,40
2017-03-21T05:08:13.405Z,44
2017-03-21T05:09:23.400Z,48
2017-03-21T05:10:33.394Z,52
2017-03-21T05:11:43.379Z,56
2017-03-21T05:12:53.674Z,56
2017-03-21T05:14:03.987Z,56
2017-03-21T05:15:14.282Z,64
2017-03-21T05:16:24.582Z,72
2017-03-21T05:17:34.884Z,68
2017-03-21T05:18:45.131Z,68
2017-03-21T05:19:55.441Z,64
2017-03-21T05:21:05.741Z,64
2017-03-21T05:22:15.718Z,84
2017-03-21T05:23:26.022Z,148
2017-03-21T05:24:36.304Z,184
2017-03-21T05:25:46.609Z,220
2017-03-21T05:26:56.320Z,256
2017-03-21T05:28:06.617Z,280
2017-03-21T05:29:16.973Z,292
2017-03-21T05:30:27.529Z,292
2017-03-21T05:31:37.827Z,296
2017-03-21T05:32:47.815Z,304
2017-03-21T05:33:58.122Z,308
2017-03-21T05:35:08.109Z,272
2017-03-21T05:36:18.659Z,220
2017-03-21T05:37:28.966Z,184
2017-03-21T05:38:38.963Z,200
2017-03-21T05:39:49.268Z,228
2017-03-21T05:40:58.960Z,236
2017-03-21T05:42:09.245Z,232
2017-03-21T05:43:19.236Z,260
2017-03-21T05:44:29.537Z,332
2017-03-21T05:45:39.542Z,288
2017-03-21T05:46:49.523Z,256
2017-03-21T05:47:59.766Z,312
2017-03-21T05:49:09.774Z,340
2017-03-21T05:50:20.086Z,360
2017-03-21T05:51:30.066Z,384
2017-03-21T05:52:40.378Z,412
2017-03-21T05:53:50.934Z,428
2017-03-21T05:55:01.233Z,360
2017-03-21T05:56:11.545Z,304
2017-03-21T05:57:21.529Z,268
2017-03-21T05:58:31.852Z,268
2017-03-21T05:59:42.400Z,324
2017-03-21T06:00:52.384Z,272
2017-03-21T06:02:02.682Z,304
2017-03-21T06:03:13.003Z,340
2017-03-21T06:04:23.000Z,396
2017-03-21T06:05:33.636Z,512
2017-03-21T06:06:43.632Z,564
2017-03-21T06:07:53.962Z,556
2017-03-21T06:09:03.955Z,536
2017-03-21T06:10:14.276Z,484
2017-03-21T06:11:24.529Z,408
2017-03-21T06:12:34.841Z,468
2017-03-21T06:13:45.145Z,576
2017-03-21T06:14:55.511Z,768
2017-03-21T06:16:05.519Z,872
2017-03-21T06:17:16.074Z,836
2017-03-21T06:18:26.385Z,896
2017-03-21T06:19:36.694Z,996
2017-03-21T06:20:47.004Z,1084
2017-03-21T06:21:56.989Z,1108
2017-03-21T06:23:07.524Z,1164
2017-03-21T06:24:17.824Z,1216
2017-03-21T06:25:27.804Z,1364
2017-03-21T06:26:37.489Z,1308
2017-03-21T06:27:47.485Z,1408
2017-03-21T06:28:57.733Z,1400
2017-03-21T06:30:08.029Z,1348
2017-03-21T06:31:18.336Z,1592
2017-03-21T06:32:28.650Z,1580
2017-03-21T06:33:38.960Z,1544
2017-03-21T06:34:49.260Z,1708
2017-03-21T06:35:59.561Z,1708
2017-03-21T06:37:09.856Z,1672
2017-03-21T06:38:20.163Z,1712
2017-03-21T06:39:30.473Z,1860
2017-03-21T06:40:41.067Z,2072
2017-03-21T06:41:51.372Z,2240
2017-03-21T06:43:01.041Z,2228
2017-03-21T06:44:11.354Z,2124
2017-03-21T06:45:21.666Z,2188
2017-03-21T06:46:32.220Z,2096
2017-03-21T06:47:42.525Z,2188
2017-03-21T06:48:52.849Z,2068
2017-03-21T06:50:02.854Z,1896
2017-03-21T06:51:12.853Z,1496
2017-03-21T06:52:23.103Z,1508
2017-03-21T06:53:33.424Z,1608
2017-03-21T06:54:43.728Z,1488
2017-03-21T06:55:54.026Z,1392
2017-03-21T06:57:04.336Z,1328
2017-03-21T06:58:14.899Z,1256
2017-03-21T06:59:25.209Z,1296
2017-03-21T07:00:35.514Z,1380
2017-03-21T07:01:45.817Z,1424
2017-03-21T07:02:56.211Z,1312
2017-03-21T07:04:06.813Z,884
2017-03-21T07:05:17.133Z,788
2017-03-21T07:06:27.122Z,980
2017-03-21T07:07:37.455Z,964
2017-03-21T07:08:47.827Z,680
2017-03-21T07:09:58.105Z,444
2017-03-21T07:11:08.439Z,340
2017-03-21T07:12:18.758Z,356
2017-03-21T07:13:29.081Z,392
2017-03-21T07:14:39.430Z,272
2017-03-21T07:15:49.402Z,232
2017-03-21T07:16:59.405Z,232
2017-03-21T07:18:09.770Z,216
2017-03-21T07:19:20.386Z,216
2017-03-21T07:20:30.713Z,264
2017-03-21T07:21:41.260Z,400
2017-03-21T07:22:51.331Z,284
2017-03-21T07:24:01.357Z,284
2017-03-21T07:25:11.414Z,408
2017-03-21T07:26:21.401Z,336
2017-03-21T07:27:31.520Z,272
2017-03-21T07:28:41.512Z,296
2017-03-21T07:29:51.829Z,396
2017-03-21T07:31:01.863Z,396
2017-03-21T07:32:12.179Z,416
2017-03-21T07:33:22.777Z,384
2017-03-21T07:34:33.101Z,420
2017-03-21T07:35:43.401Z,584
2017-03-21T07:36:53.727Z,796
2017-03-21T07:38:04.038Z,948
2017-03-21T07:39:14.646Z,1168
2017-03-21T07:40:24.956Z,1400
2017-03-21T07:41:34.949Z,1348
2017-03-21T07:42:45.261Z,1372
2017-03-21T07:43:54.958Z,1248
2017-03-21T07:45:05.609Z,1156
2017-03-21T07:46:15.940Z,1104
2017-03-21T07:47:26.276Z,1056
2017-03-21T07:48:36.292Z,1016
2017-03-21T07:49:46.335Z,1000
2017-03-21T07:50:56.918Z,992
2017-03-21T07:52:06.921Z,864
2017-03-21T07:53:16.925Z,748
2017-03-21T07:54:27.264Z,732
2017-03-21T07:55:37.580Z,664
2017-03-21T07:56:47.890Z,656
2017-03-21T07:57:58.237Z,652
2017-03-21T07:59:08.774Z,588
2017-03-21T08:00:19.100Z,616
2017-03-21T08:01:29.460Z,844
2017-03-21T08:02:40.086Z,1404
2017-03-21T08:03:50.403Z,1860
2017-03-21T08:05:00.728Z,2328
2017-03-21T08:06:11.049Z,2468
2017-03-21T08:07:20.744Z,2604
2017-03-21T08:08:30.995Z,2656
2017-03-21T08:09:41.363Z,2720
2017-03-21T08:10:51.693Z,2820
2017-03-21T08:12:02.055Z,2804
2017-03-21T08:13:12.384Z,2760
2017-03-21T08:14:22.955Z,2668
2017-03-21T08:15:32.945Z,2632
2017-03-21T08:16:43.270Z,2648
2017-03-21T08:17:53.593Z,2616
2017-03-21T08:19:04.128Z,2572
2017-03-21T08:20:14.802Z,2432
2017-03-21T08:21:24.806Z,2312
2017-03-21T08:22:35.146Z,2332
2017-03-21T08:23:45.142Z,2344
2017-03-21T08:24:55.493Z,2244
2017-03-21T08:26:05.456Z,2048
2017-03-21T08:27:15.833Z,1940
2017-03-21T08:28:26.178Z,1872
2017-03-21T08:29:36.195Z,1784
2017-03-21T08:30:46.504Z,1740
2017-03-21T08:31:57.138Z,2128
2017-03-21T08:33:07.494Z,2604
2017-03-21T08:34:17.821Z,2648
2017-03-21T08:35:28.173Z,2572
2017-03-21T08:36:38.534Z,2392
2017-03-21T08:37:49.167Z,2320
2017-03-21T08:38:59.488Z,2180
2017-03-21T08:40:09.864Z,2100
2017-03-21T08:41:20.265Z,2112
2017-03-21T08:42:30.322Z,2136
2017-03-21T08:43:40.904Z,2008
2017-03-21T08:44:50.904Z,2176
2017-03-21T08:46:01.222Z,2572
2017-03-21T08:47:11.565Z,2552
2017-03-21T08:48:21.949Z,2368
2017-03-21T08:49:32.671Z,2324
2017-03-21T08:50:43.017Z,2364
2017-03-21T08:51:53.340Z,2432
2017-03-21T08:53:03.709Z,2388
2017-03-21T08:54:14.037Z,3076
2017-03-21T08:55:24.637Z,3376
2017-03-21T08:56:34.956Z,3128
2017-03-21T08:57:45.296Z,3308
2017-03-21T08:58:55.302Z,3244
2017-03-21T09:00:05.832Z,3136
2017-03-21T09:01:16.156Z,3256
2017-03-21T09:02:26.155Z,3440
2017-03-21T09:03:36.483Z,3556
2017-03-21T09:04:46.786Z,3452
2017-03-21T09:05:57.088Z,3536
2017-03-21T09:07:07.380Z,3596
2017-03-21T09:08:17.384Z,3528
2017-03-21T09:09:27.723Z,3192
2017-03-21T09:10:37.731Z,3108
2017-03-21T09:11:48.035Z,2408
2017-03-21T09:12:58.618Z,2496
2017-03-21T09:14:08.930Z,2400
2017-03-21T09:15:19.241Z,2544
2017-03-21T09:16:29.576Z,1812
2017-03-21T09:17:39.587Z,1388
2017-03-21T09:18:49.855Z,1444
2017-03-21T09:20:00.182Z,1432
2017-03-21T09:21:10.518Z,1388
2017-03-21T09:22:20.866Z,1512
2017-03-21T09:23:30.874Z,1176
2017-03-21T09:24:41.497Z,928
2017-03-21T09:25:51.503Z,924
2017-03-21T09:27:01.849Z,1248
2017-03-21T09:28:11.883Z,1596
2017-03-21T09:29:22.206Z,2576
2017-03-21T09:30:32.835Z,2504
2017-03-21T09:31:43.143Z,2700
2017-03-21T09:32:53.456Z,2068
2017-03-21T09:34:03.760Z,2352
2017-03-21T09:35:14.095Z,2588
2017-03-21T09:36:24.342Z,2544
2017-03-21T09:37:34.353Z,2736
2017-03-21T09:38:44.602Z,2796
2017-03-21T09:39:54.951Z,2876
2017-03-21T09:41:05.284Z,2816
2017-03-21T09:42:15.856Z,2780
2017-03-21T09:43:26.225Z,2524
2017-03-21T09:44:36.457Z,2816
2017-03-21T09:45:46.786Z,3256
2017-03-21T09:46:57.111Z,2836
2017-03-21T09:48:07.362Z,2784
2017-03-21T09:49:17.725Z,2768
2017-03-21T09:50:28.081Z,2492
2017-03-21T09:51:38.390Z,2500
2017-03-21T09:52:48.697Z,2580
2017-03-21T09:53:59.264Z,2692
2017-03-21T09:55:09.263Z,2384
2017-03-21T09:56:18.934Z,2356
2017-03-21T09:57:29.248Z,2212
2017-03-21T09:58:39.262Z,2220
2017-03-21T09:59:49.561Z,2520
2017-03-21T10:00:59.868Z,2888
2017-03-21T10:02:10.178Z,3008
2017-03-21T10:03:20.532Z,2968
2017-03-21T10:04:30.854Z,2892
2017-03-21T10:05:41.165Z,2716
2017-03-21T10:06:51.169Z,2452
2017-03-21T10:08:01.187Z,2496
2017-03-21T10:09:11.197Z,2676
2017-03-21T10:10:21.541Z,2780
2017-03-21T10:11:31.506Z,3220
2017-03-21T10:12:42.281Z,3320
2017-03-21T10:13:52.595Z,2756
2017-03-21T10:15:02.965Z,2664
2017-03-21T10:16:13.282Z,3188
2017-03-21T10:17:23.820Z,3156
2017-03-21T10:18:34.169Z,2916
2017-03-21T10:19:44.501Z,3144
2017-03-21T10:20:54.809Z,3032
2017-03-21T10:22:04.815Z,3068
2017-03-21T10:23:15.071Z,2960
2017-03-21T10:24:25.073Z,2664
2017-03-21T10:25:35.054Z,2856
2017-03-21T10:26:45.350Z,2664
2017-03-21T10:27:55.673Z,2396
2017-03-21T10:29:06.258Z,2664
2017-03-21T10:30:16.258Z,2632
2017-03-21T10:31:26.582Z,2236
2017-03-21T10:32:36.581Z,2256
2017-03-21T10:33:46.589Z,2408
2017-03-21T10:34:57.152Z,2264
2017-03-21T10:36:07.495Z,2216
2017-03-21T10:37:17.520Z,2376
2017-03-21T10:38:27.209Z,2684
2017-03-21T10:39:37.529Z,2392
2017-03-21T10:40:48.137Z,2064
2017-03-21T10:41:58.444Z,2044
2017-03-21T10:43:08.754Z,2508
2017-03-21T10:44:19.071Z,2608
2017-03-21T10:45:29.070Z,2552
2017-03-21T10:46:39.679Z,2500
2017-03-21T10:47:49.677Z,2788
2017-03-21T10:48:59.347Z,2860
2017-03-21T10:50:09.641Z,2924
2017-03-21T10:51:19.656Z,2952
2017-03-21T10:52:30.282Z,3064
2017-03-21T10:53:40.578Z,2816
2017-03-21T10:54:50.919Z,2668
2017-03-21T10:56:00.954Z,2228
2017-03-21T10:57:11.288Z,2024
2017-03-21T10:58:21.850Z,2072
2017-03-21T10:59:32.183Z,2168
2017-03-21T11:00:42.198Z,2292
2017-03-21T11:01:52.569Z,2424
2017-03-21T11:03:02.892Z,2508
2017-03-21T11:04:13.462Z,2440
2017-03-21T11:05:23.776Z,2288
2017-03-21T11:06:34.144Z,2088
2017-03-21T11:07:43.820Z,1720
2017-03-21T11:08:54.128Z,1856
2017-03-21T11:10:04.702Z,2032
2017-03-21T11:11:14.738Z,2068
2017-03-21T11:12:25.053Z,1816
2017-03-21T11:13:35.049Z,1568
2017-03-21T11:14:45.065Z,1700
2017-03-21T11:15:55.693Z,1916
2017-03-21T11:17:05.711Z,1824
2017-03-21T11:18:16.233Z,1832
2017-03-21T11:19:26.792Z,1980
2017-03-21T11:20:36.805Z,2084
2017-03-21T11:21:47.465Z,2228
2017-03-21T11:22:57.573Z,2268
2017-03-21T11:24:07.587Z,2204
2017-03-21T11:25:17.941Z,2168
2017-03-21T11:26:27.951Z,2076
2017-03-21T11:27:38.508Z,2048
2017-03-21T11:28:48.521Z,2248
2017-03-21T11:29:58.832Z,2192
2017-03-21T11:31:08.838Z,2476
2017-03-21T11:32:18.534Z,2540
2017-03-21T11:33:29.152Z,2596
2017-03-21T11:34:39.481Z,2752
2017-03-21T11:35:49.491Z,2728
2017-03-21T11:36:59.798Z,2724
2017-03-21T11:38:10.106Z,2560
2017-03-21T11:39:20.676Z,2428
2017-03-21T11:40:30.984Z,2416
2017-03-21T11:41:41.297Z,2420
2017-03-21T11:42:51.614Z,2320
2017-03-21T11:44:01.928Z,2244
2017-03-21T11:45:12.247Z,2236
2017-03-21T11:46:22.585Z,2124
2017-03-21T11:47:32.924Z,2020
2017-03-21T11:48:43.263Z,2016
2017-03-21T11:49:53.264Z,1880
2017-03-21T11:51:03.890Z,1752
2017-03-21T11:52:13.577Z,1688
2017-03-21T11:53:23.909Z,1672
2017-03-21T11:54:34.229Z,1764
2017-03-21T11:55:44.581Z,1976
2017-03-21T11:56:55.151Z,2076
2017-03-21T11:58:05.475Z,2168
2017-03-21T11:59:15.778Z,2376
2017-03-21T12:00:26.098Z,2584
2017-03-21T12:01:36.426Z,2828
2017-03-21T12:02:47.011Z,3088
2017-03-21T12:03:57.035Z,3124
2017-03-21T12:05:07.337Z,3104
2017-03-21T12:06:17.673Z,3148
2017-03-21T12:07:27.993Z,3324
2017-03-21T12:08:38.568Z,3428
2017-03-21T12:09:48.556Z,3396
2017-03-21T12:10:58.540Z,3268
2017-03-21T12:12:08.856Z,3244
2017-03-21T12:13:19.164Z,3356
2017-03-21T12:14:29.425Z,3456
2017-03-21T12:15:39.729Z,3344
2017-03-21T12:16:50.030Z,3208
2017-03-21T12:18:00.349Z,2948
2017-03-21T12:19:10.348Z,2680
2017-03-21T12:20:20.930Z,2416
2017-03-21T12:21:31.232Z,2192
2017-03-21T12:22:41.251Z,1996
2017-03-21T12:23:51.570Z,1820
2017-03-21T12:25:01.876Z,1788
2017-03-21T12:26:12.434Z,1716
2017-03-21T12:27:22.743Z,1636
2017-03-21T12:28:33.054Z,1560
2017-03-21T12:29:43.374Z,1492
2017-03-21T12:30:53.688Z,1496
2017-03-21T12:32:04.262Z,1584
2017-03-21T12:33:14.291Z,1604
2017-03-21T12:34:24.616Z,1608
2017-03-21T12:35:35.000Z,1720
2017-03-21T12:36:45.423Z,1972
2017-03-21T12:37:56.296Z,2124
2017-03-21T12:39:06.621Z,2148
2017-03-21T12:40:16.991Z,2272
2017-03-21T12:41:27.334Z,2236
2017-03-21T12:42:37.644Z,2168
2017-03-21T12:43:48.332Z,2252
2017-03-21T12:44:58.654Z,2092
2017-03-21T12:46:08.974Z,1888
2017-03-21T12:47:18.965Z,2032
2017-03-21T12:48:28.981Z,2004
2017-03-21T12:49:39.276Z,1952
2017-03-21T12:50:49.605Z,1972
2017-03-21T12:51:59.787Z,1972
2017-03-21T12:53:10.102Z,2032
2017-03-21T12:54:20.412Z,2012
2017-03-21T12:55:30.994Z,2008
2017-03-21T12:56:41.321Z,2116
2017-03-21T12:57:51.676Z,2152
2017-03-21T12:59:01.711Z,2132
2017-03-21T13:00:12.028Z,2080
2017-03-21T13:01:22.591Z,2068
2017-03-21T13:02:32.607Z,2092
2017-03-21T13:03:42.933Z,2076
2017-03-21T13:04:53.257Z,1960
2017-03-21T13:06:03.602Z,1868
2017-03-21T13:07:14.156Z,1872
2017-03-21T13:08:24.478Z,1856
2017-03-21T13:09:34.479Z,1860
2017-03-21T13:10:44.790Z,1816
2017-03-21T13:11:55.103Z,1784
2017-03-21T13:13:05.691Z,1808
2017-03-21T13:14:16.009Z,1852
2017-03-21T13:15:26.017Z,1792
2017-03-21T13:16:36.342Z,1812
2017-03-21T13:17:46.366Z,1824
2017-03-21T13:18:56.652Z,1832
2017-03-21T13:20:07.010Z,1768
2017-03-21T13:21:17.003Z,1716
2017-03-21T13:22:27.321Z,1724
2017-03-21T13:23:37.668Z,1756
2017-03-21T13:24:47.932Z,1800
2017-03-21T13:25:58.258Z,1852
2017-03-21T13:27:08.568Z,1836
2017-03-21T13:28:18.882Z,1764
2017-03-21T13:29:29.195Z,1768
2017-03-21T13:30:39.743Z,1808
2017-03-21T13:31:49.791Z,1828
2017-03-21T13:33:00.099Z,1684
2017-03-21T13:34:10.138Z,1660
2017-03-21T13:35:20.464Z,1616
2017-03-21T13:36:30.862Z,1564
2017-03-21T13:37:41.171Z,1576
2017-03-21T13:38:50.866Z,1572
2017-03-21T13:40:00.875Z,1876
2017-03-21T13:41:10.884Z,2084
2017-03-21T13:42:21.486Z,2256
2017-03-21T13:43:31.794Z,2444
2017-03-21T13:44:42.123Z,2408
2017-03-21T13:45:52.145Z,2332
2017-03-21T13:47:02.158Z,2260
2017-03-21T13:48:12.392Z,2264
2017-03-21T13:49:21.774Z,2304
2017-03-21T13:50:32.136Z,2396
2017-03-21T13:51:42.452Z,2448
2017-03-21T13:52:52.773Z,2516
2017-03-21T13:54:03.236Z,2564
2017-03-21T13:55:13.592Z,2548
2017-03-21T13:56:23.932Z,2544
2017-03-21T13:57:34.100Z,2508
2017-03-21T13:58:44.411Z,2432
2017-03-21T13:59:54.654Z,2396
2017-03-21T14:01:04.982Z,2336
2017-03-21T14:02:14.678Z,2280
2017-03-21T14:03:25.073Z,2264
2017-03-21T14:04:35.599Z,2288
2017-03-21T14:05:46.169Z,2280
2017-03-21T14:06:56.504Z,2272
2017-03-21T14:08:06.817Z,2240
2017-03-21T14:09:16.810Z,2416
2017-03-21T14:10:27.128Z,2552
2017-03-21T14:11:37.423Z,2544
2017-03-21T14:12:47.750Z,2476
2017-03-21T14:13:58.079Z,2340
2017-03-21T14:15:08.415Z,2240
2017-03-21T14:16:18.732Z,2276
2017-03-21T14:17:29.358Z,2144
2017-03-21T14:18:39.682Z,1864
2017-03-21T14:19:49.993Z,1636
2017-03-21T14:21:00.299Z,1660
2017-03-21T14:22:10.640Z,1832
2017-03-21T14:23:20.899Z,1944
2017-03-21T14:24:31.216Z,2040
2017-03-21T14:25:41.244Z,2016
2017-03-21T14:26:51.573Z,1948
2017-03-21T14:28:01.890Z,1888
2017-03-21T14:29:12.719Z,1836
2017-03-21T14:30:23.076Z,1756
2017-03-21T14:31:33.401Z,1688
2017-03-21T14:32:43.730Z,1664
2017-03-21T14:33:54.047Z,1692
2017-03-21T14:35:04.616Z,1768
2017-03-21T14:36:14.951Z,1772
2017-03-21T14:37:24.957Z,1732
2017-03-21T14:38:35.326Z,1696
2017-03-21T14:39:45.653Z,1680
2017-03-21T14:40:56.219Z,1676
2017-03-21T14:42:06.536Z,1640
2017-03-21T14:43:16.539Z,1616
2017-03-21T14:44:26.213Z,1672
2017-03-21T14:45:36.210Z,1712
2017-03-21T14:46:46.443Z,1724
2017-03-21T14:47:56.760Z,1716
2017-03-21T14:49:06.837Z,1712
2017-03-21T14:50:16.884Z,1708
2017-03-21T14:51:27.196Z,1684
2017-03-21T14:52:37.503Z,1652
2017-03-21T14:53:47.839Z,1636
2017-03-21T14:54:58.165Z,1628
2017-03-21T14:56:08.489Z,1656
2017-03-21T14:57:18.819Z,1672
2017-03-21T14:58:29.381Z,1684
2017-03-21T14:59:39.706Z,1688
2017-03-21T15:00:49.721Z,1684
2017-03-21T15:02:00.044Z,1676
2017-03-21T15:03:09.747Z,1660
2017-03-21T15:04:20.360Z,1620
2017-03-21T15:05:30.681Z,1588
2017-03-21T15:06:40.740Z,1552
2017-03-21T15:07:50.748Z,1524
2017-03-21T15:09:01.064Z,1520
2017-03-21T15:10:11.640Z,1512
2017-03-21T15:11:21.975Z,1480
2017-03-21T15:12:31.987Z,1436
2017-03-21T15:13:41.989Z,1400
2017-03-21T15:14:51.972Z,1380
2017-03-21T15:16:02.516Z,1364
2017-03-21T15:17:12.844Z,1372
2017-03-21T15:18:23.195Z,1364
2017-03-21T15:19:33.502Z,1336
2017-03-21T15:20:43.204Z,1288
2017-03-21T15:21:53.757Z,1252
2017-03-21T15:23:04.098Z,1240
2017-03-21T15:24:14.418Z,1252
2017-03-21T15:25:24.427Z,1292
2017-03-21T15:26:34.430Z,1332
2017-03-21T15:27:44.735Z,1356
2017-03-21T15:28:55.044Z,1372
2017-03-21T15:30:05.360Z,1360
2017-03-21T15:31:15.687Z,1328
2017-03-21T15:32:26.014Z,1296
2017-03-21T15:33:36.283Z,1292
2017-03-21T15:34:46.310Z,1308
2017-03-21T15:35:56.668Z,1320
2017-03-21T15:37:06.348Z,1316
2017-03-21T15:38:16.661Z,1308
2017-03-21T15:39:27.208Z,1300
2017-03-21T15:40:37.189Z,1296
2017-03-21T15:41:47.531Z,1292
2017-03-21T15:42:57.531Z,1284
2017-03-21T15:44:07.849Z,1264
2017-03-21T15:45:18.101Z,1236
2017-03-21T15:46:28.114Z,1220
2017-03-21T15:47:38.434Z,1204
2017-03-21T15:48:48.757Z,1200
2017-03-21T15:49:59.073Z,1204
2017-03-21T15:51:08.997Z,1212
2017-03-21T15:52:19.339Z,1192
2017-03-21T15:53:29.647Z,1156
2017-03-21T15:54:39.970Z,1112
2017-03-21T15:55:50.271Z,1072
2017-03-21T15:57:00.539Z,1036
2017-03-21T15:58:10.555Z,1012
2017-03-21T15:59:20.879Z,1004
2017-03-21T16:00:31.179Z,1008
2017-03-21T16:01:41.490Z,1028
2017-03-21T16:02:52.064Z,1040
2017-03-21T16:04:02.396Z,1028
2017-03-21T16:05:12.696Z,1012
2017-03-21T16:06:23.020Z,968
2017-03-21T16:07:33.010Z,908
2017-03-21T16:08:43.248Z,852
2017-03-21T16:09:53.262Z,800